sensor_id;sensor_type;location;lat;lon;timestamp;P1;durP1;ratioP1;P2;durP2;ratioP2
1747;SDS011;871;47.034;15.394;2023-05-10T04:02:30;30.30;;;7.60;;
1747;SDS011;871;47.034;15.394;2023-05-10T04:04:56;30.67;;;7.68;;
1747;SDS011;871;47.034;15.394;2023-05-10T04:07:22;32.80;;;8.20;;
1747;SDS011;871;47.034;15.394;2023-05-10T04:09:49;30.07;;;7.80;;
1747;SDS011;871;47.034;15.394;2023-05-10T04:12:15;30.93;;;7.63;;
1747;SDS011;871;47.034;15.394;2023-05-10T04:14:41;31.23;;;8.37;;
1747;SDS011;871;47.034;15.394;2023-05-10T04:17:07;32.80;;;9.40;;
1747;SDS011;871;47.034;15.394;2023-05-10T04:19:36;32.80;;;9.90;;
1747;SDS011;871;47.034;15.394;2023-05-10T04:22:02;31.60;;;8.67;;
1747;SDS011;871;47.034;15.394;2023-05-10T04:24:28;34.40;;;10.03;;
1747;SDS011;871;47.034;15.394;2023-05-10T04:26:54;32.97;;;8.30;;
1747;SDS011;871;47.034;15.394;2023-05-10T04:29:20;35.77;;;8.73;;
1747;SDS011;871;47.034;15.394;2023-05-10T04:31:46;37.33;;;9.53;;
1747;SDS011;871;47.034;15.394;2023-05-10T04:34:16;38.73;;;9.47;;
1747;SDS011;871;47.034;15.394;2023-05-10T04:36:43;37.67;;;9.30;;
1747;SDS011;871;47.034;15.394;2023-05-10T04:39:09;41.63;;;9.53;;
1747;SDS011;871;47.034;15.394;2023-05-10T04:41:35;40.57;;;9.70;;
1747;SDS011;871;47.034;15.394;2023-05-10T04:44:03;44.73;;;9.40;;
1747;SDS011;871;47.034;15.394;2023-05-10T04:46:31;38.20;;;8.87;;
1747;SDS011;871;47.034;15.394;2023-05-10T04:48:57;40.70;;;8.30;;
1747;SDS011;871;47.034;15.394;2023-05-10T04:51:23;42.93;;;9.10;;
1747;SDS011;871;47.034;15.394;2023-05-10T04:53:49;40.40;;;9.17;;
1747;SDS011;871;47.034;15.394;2023-05-10T04:56:15;40.67;;;9.33;;
1747;SDS011;871;47.034;15.394;2023-05-10T04:58:41;44.80;;;9.90;;
1747;SDS011;871;47.034;15.394;2023-05-10T05:01:09;41.00;;;8.70;;
1747;SDS011;871;47.034;15.394;2023-05-10T05:03:36;42.47;;;9.50;;
1747;SDS011;871;47.034;15.394;2023-05-10T05:06:02;43.20;;;8.47;;
1747;SDS011;871;47.034;15.394;2023-05-10T05:08:28;44.00;;;9.60;;
1747;SDS011;871;47.034;15.394;2023-05-10T05:10:54;44.90;;;9.37;;
1747;SDS011;871;47.034;15.394;2023-05-10T05:13:20;45.63;;;9.53;;
1747;SDS011;871;47.034;15.394;2023-05-10T05:15:46;44.03;;;9.13;;
1747;SDS011;871;47.034;15.394;2023-05-10T05:18:12;46.37;;;9.60;;
1747;SDS011;871;47.034;15.394;2023-05-10T05:20:39;45.57;;;9.10;;
1747;SDS011;871;47.034;15.394;2023-05-10T05:23:05;45.77;;;8.37;;
1747;SDS011;871;47.034;15.394;2023-05-10T05:25:31;43.97;;;8.87;;
1747;SDS011;871;47.034;15.394;2023-05-10T05:27:58;44.37;;;9.37;;
1747;SDS011;871;47.034;15.394;2023-05-10T05:30:24;45.03;;;8.90;;
1747;SDS011;871;47.034;15.394;2023-05-10T05:32:50;45.20;;;9.23;;
1747;SDS011;871;47.034;15.394;2023-05-10T05:35:17;42.63;;;8.50;;
1747;SDS011;871;47.034;15.394;2023-05-10T05:37:43;45.13;;;8.87;;
1747;SDS011;871;47.034;15.394;2023-05-10T05:40:12;48.00;;;8.63;;
1747;SDS011;871;47.034;15.394;2023-05-10T05:42:38;45.50;;;8.73;;
1747;SDS011;871;47.034;15.394;2023-05-10T05:45:04;42.97;;;8.73;;
1747;SDS011;871;47.034;15.394;2023-05-10T05:47:30;46.87;;;9.20;;
1747;SDS011;871;47.034;15.394;2023-05-10T05:49:56;47.53;;;9.60;;
1747;SDS011;871;47.034;15.394;2023-05-10T05:52:22;44.30;;;8.30;;
1747;SDS011;871;47.034;15.394;2023-05-10T05:54:48;44.90;;;8.80;;
1747;SDS011;871;47.034;15.394;2023-05-10T05:57:14;44.17;;;7.80;;
1747;SDS011;871;47.034;15.394;2023-05-10T05:59:40;46.73;;;8.40;;
1747;SDS011;871;47.034;15.394;2023-05-10T06:02:09;45.50;;;8.43;;
1747;SDS011;871;47.034;15.394;2023-05-10T06:04:36;55.07;;;8.17;;
1747;SDS011;871;47.034;15.394;2023-05-10T06:07:02;47.90;;;8.90;;
1747;SDS011;871;47.034;15.394;2023-05-10T06:09:28;46.07;;;8.50;;
1747;SDS011;871;47.034;15.394;2023-05-10T06:11:54;44.53;;;8.20;;
1747;SDS011;871;47.034;15.394;2023-05-10T06:14:20;45.50;;;7.37;;
1747;SDS011;871;47.034;15.394;2023-05-10T06:16:46;45.10;;;7.70;;
1747;SDS011;871;47.034;15.394;2023-05-10T06:19:12;46.77;;;7.70;;
1747;SDS011;871;47.034;15.394;2023-05-10T06:21:38;50.20;;;7.97;;
1747;SDS011;871;47.034;15.394;2023-05-10T06:24:05;45.50;;;8.43;;
1747;SDS011;871;47.034;15.394;2023-05-10T06:26:32;46.23;;;7.57;;
1747;SDS011;871;47.034;15.394;2023-05-10T06:28:58;46.00;;;6.93;;
1747;SDS011;871;47.034;15.394;2023-05-10T06:31:24;48.27;;;8.23;;
1747;SDS011;871;47.034;15.394;2023-05-10T06:33:51;42.97;;;7.20;;
1747;SDS011;871;47.034;15.394;2023-05-10T06:36:17;46.73;;;7.50;;
1747;SDS011;871;47.034;15.394;2023-05-10T06:38:43;47.13;;;8.33;;
1747;SDS011;871;47.034;15.394;2023-05-10T06:41:09;46.07;;;9.33;;
1747;SDS011;871;47.034;15.394;2023-05-10T06:43:35;45.70;;;8.10;;
1747;SDS011;871;47.034;15.394;2023-05-10T06:46:04;47.60;;;7.90;;
1747;SDS011;871;47.034;15.394;2023-05-10T06:48:32;48.97;;;8.03;;
1747;SDS011;871;47.034;15.394;2023-05-10T06:50:58;45.17;;;7.60;;
1747;SDS011;871;47.034;15.394;2023-05-10T06:53:24;44.53;;;7.60;;
1747;SDS011;871;47.034;15.394;2023-05-10T06:55:50;46.20;;;8.10;;
1747;SDS011;871;47.034;15.394;2023-05-10T06:58:17;47.90;;;8.20;;
1747;SDS011;871;47.034;15.394;2023-05-10T07:00:43;46.93;;;7.70;;
1747;SDS011;871;47.034;15.394;2023-05-10T07:03:10;45.43;;;7.70;;
1747;SDS011;871;47.034;15.394;2023-05-10T07:05:36;47.67;;;7.47;;
1747;SDS011;871;47.034;15.394;2023-05-10T07:08:02;47.27;;;8.00;;
1747;SDS011;871;47.034;15.394;2023-05-10T07:10:28;47.77;;;7.30;;
1747;SDS011;871;47.034;15.394;2023-05-10T07:12:54;44.50;;;7.50;;
1747;SDS011;871;47.034;15.394;2023-05-10T07:15:22;45.30;;;7.90;;
1747;SDS011;871;47.034;15.394;2023-05-10T07:17:48;45.30;;;8.17;;
1747;SDS011;871;47.034;15.394;2023-05-10T07:20:14;46.20;;;7.53;;
1747;SDS011;871;47.034;15.394;2023-05-10T07:22:40;44.57;;;7.37;;
1747;SDS011;871;47.034;15.394;2023-05-10T07:25:06;44.27;;;7.43;;
1747;SDS011;871;47.034;15.394;2023-05-10T07:27:32;46.33;;;7.77;;
1747;SDS011;871;47.034;15.394;2023-05-10T07:29:59;48.27;;;8.60;;
1747;SDS011;871;47.034;15.394;2023-05-10T07:32:26;43.60;;;7.13;;
1747;SDS011;871;47.034;15.394;2023-05-10T07:34:53;48.50;;;8.23;;
1747;SDS011;871;47.034;15.394;2023-05-10T07:37:21;48.70;;;7.90;;
1747;SDS011;871;47.034;15.394;2023-05-10T07:39:47;43.70;;;7.93;;
1747;SDS011;871;47.034;15.394;2023-05-10T07:42:13;53.70;;;9.37;;
1747;SDS011;871;47.034;15.394;2023-05-10T07:44:40;46.67;;;6.83;;
1747;SDS011;871;47.034;15.394;2023-05-10T07:47:06;46.70;;;8.10;;
1747;SDS011;871;47.034;15.394;2023-05-10T07:49:32;46.17;;;7.60;;
1747;SDS011;871;47.034;15.394;2023-05-10T07:51:58;47.37;;;8.33;;
1747;SDS011;871;47.034;15.394;2023-05-10T07:54:25;50.23;;;9.53;;
1747;SDS011;871;47.034;15.394;2023-05-10T07:56:51;47.40;;;7.90;;
1747;SDS011;871;47.034;15.394;2023-05-10T07:59:17;46.70;;;7.90;;
1747;SDS011;871;47.034;15.394;2023-05-10T08:01:44;45.37;;;7.63;;
1747;SDS011;871;47.034;15.394;2023-05-10T08:04:10;47.07;;;8.10;;
1747;SDS011;871;47.034;15.394;2023-05-10T08:06:37;46.40;;;6.70;;
1747;SDS011;871;47.034;15.394;2023-05-10T08:09:03;44.33;;;7.10;;
1747;SDS011;871;47.034;15.394;2023-05-10T08:11:29;45.87;;;7.63;;
1747;SDS011;871;47.034;15.394;2023-05-10T08:13:55;44.70;;;6.80;;
1747;SDS011;871;47.034;15.394;2023-05-10T08:16:21;56.07;;;8.73;;
1747;SDS011;871;47.034;15.394;2023-05-10T08:18:47;45.27;;;7.40;;
1747;SDS011;871;47.034;15.394;2023-05-10T08:21:16;48.87;;;8.70;;
1747;SDS011;871;47.034;15.394;2023-05-10T08:23:43;45.53;;;7.23;;
1747;SDS011;871;47.034;15.394;2023-05-10T08:26:09;50.17;;;9.10;;
1747;SDS011;871;47.034;15.394;2023-05-10T08:28:35;46.73;;;7.80;;
1747;SDS011;871;47.034;15.394;2023-05-10T08:31:01;45.30;;;8.00;;
1747;SDS011;871;47.034;15.394;2023-05-10T08:33:27;47.07;;;6.73;;
1747;SDS011;871;47.034;15.394;2023-05-10T08:35:55;45.00;;;7.20;;
1747;SDS011;871;47.034;15.394;2023-05-10T08:38:21;42.30;;;6.10;;
1747;SDS011;871;47.034;15.394;2023-05-10T08:40:47;49.13;;;7.37;;
1747;SDS011;871;47.034;15.394;2023-05-10T08:43:15;45.97;;;6.63;;
1747;SDS011;871;47.034;15.394;2023-05-10T08:45:45;48.40;;;6.90;;
1747;SDS011;871;47.034;15.394;2023-05-10T08:48:11;52.30;;;7.17;;
1747;SDS011;871;47.034;15.394;2023-05-10T08:50:39;45.33;;;7.43;;
1747;SDS011;871;47.034;15.394;2023-05-10T08:53:06;45.83;;;8.00;;
1747;SDS011;871;47.034;15.394;2023-05-10T08:55:33;48.43;;;7.20;;
1747;SDS011;871;47.034;15.394;2023-05-10T08:58:01;44.90;;;6.60;;
1747;SDS011;871;47.034;15.394;2023-05-10T09:00:28;42.63;;;5.93;;
1747;SDS011;871;47.034;15.394;2023-05-10T09:02:54;43.17;;;5.57;;
1747;SDS011;871;47.034;15.394;2023-05-10T09:05:20;48.73;;;6.83;;
1747;SDS011;871;47.034;15.394;2023-05-10T09:07:48;43.80;;;6.40;;
1747;SDS011;871;47.034;15.394;2023-05-10T09:10:14;43.20;;;5.07;;
1747;SDS011;871;47.034;15.394;2023-05-10T09:12:40;44.20;;;6.47;;
1747;SDS011;871;47.034;15.394;2023-05-10T09:15:08;44.90;;;6.03;;
1747;SDS011;871;47.034;15.394;2023-05-10T09:17:35;43.73;;;5.07;;
1747;SDS011;871;47.034;15.394;2023-05-10T09:20:02;43.37;;;5.47;;
1747;SDS011;871;47.034;15.394;2023-05-10T09:22:29;46.90;;;6.20;;
1747;SDS011;871;47.034;15.394;2023-05-10T09:27:34;43.07;;;5.57;;
1747;SDS011;871;47.034;15.394;2023-05-10T09:30:04;44.13;;;5.93;;
1747;SDS011;871;47.034;15.394;2023-05-10T09:35:09;44.67;;;6.17;;
1747;SDS011;871;47.034;15.394;2023-05-10T09:37:40;44.20;;;6.30;;
1747;SDS011;871;47.034;15.394;2023-05-10T09:40:07;43.20;;;5.47;;
1747;SDS011;871;47.034;15.394;2023-05-10T09:42:34;43.90;;;5.63;;
1747;SDS011;871;47.034;15.394;2023-05-10T09:45:01;53.30;;;6.53;;
1747;SDS011;871;47.034;15.394;2023-05-10T09:47:27;42.57;;;6.20;;
1747;SDS011;871;47.034;15.394;2023-05-10T09:49:53;44.37;;;5.57;;
1747;SDS011;871;47.034;15.394;2023-05-10T09:52:27;44.73;;;5.37;;
1747;SDS011;871;47.034;15.394;2023-05-10T09:54:53;42.13;;;5.17;;
1747;SDS011;871;47.034;15.394;2023-05-10T09:57:20;41.93;;;6.17;;
1747;SDS011;871;47.034;15.394;2023-05-10T09:59:47;44.00;;;6.03;;
1747;SDS011;871;47.034;15.394;2023-05-10T10:02:13;46.47;;;7.23;;
1747;SDS011;871;47.034;15.394;2023-05-10T10:04:39;44.93;;;6.00;;
1747;SDS011;871;47.034;15.394;2023-05-10T10:07:06;43.37;;;6.53;;
1747;SDS011;871;47.034;15.394;2023-05-10T10:09:33;44.30;;;8.07;;
1747;SDS011;871;47.034;15.394;2023-05-10T10:11:59;43.43;;;6.60;;
1747;SDS011;871;47.034;15.394;2023-05-10T10:14:26;43.03;;;6.03;;
1747;SDS011;871;47.034;15.394;2023-05-10T10:16:52;43.43;;;4.90;;
1747;SDS011;871;47.034;15.394;2023-05-10T10:19:18;42.87;;;5.80;;
1747;SDS011;871;47.034;15.394;2023-05-10T10:21:45;42.67;;;6.00;;
1747;SDS011;871;47.034;15.394;2023-05-10T10:24:13;45.70;;;5.00;;
1747;SDS011;871;47.034;15.394;2023-05-10T10:26:39;45.13;;;6.80;;
1747;SDS011;871;47.034;15.394;2023-05-10T10:31:50;46.10;;;6.17;;
1747;SDS011;871;47.034;15.394;2023-05-10T10:34:25;42.40;;;6.50;;
1747;SDS011;871;47.034;15.394;2023-05-10T10:36:52;45.53;;;6.57;;
1747;SDS011;871;47.034;15.394;2023-05-10T10:39:19;44.07;;;6.50;;
1747;SDS011;871;47.034;15.394;2023-05-10T10:41:49;43.97;;;6.50;;
1747;SDS011;871;47.034;15.394;2023-05-10T10:44:22;50.47;;;7.03;;
1747;SDS011;871;47.034;15.394;2023-05-10T10:52:21;44.10;;;7.80;;
1747;SDS011;871;47.034;15.394;2023-05-10T10:57:43;44.47;;;6.67;;
1747;SDS011;871;47.034;15.394;2023-05-10T11:10:22;43.87;;;7.10;;
1747;SDS011;871;47.034;15.394;2023-05-10T11:13:01;49.00;;;6.97;;
1747;SDS011;871;47.034;15.394;2023-05-10T11:15:28;46.00;;;8.10;;
1747;SDS011;871;47.034;15.394;2023-05-10T11:17:55;44.87;;;8.27;;
1747;SDS011;871;47.034;15.394;2023-05-10T11:20:22;46.90;;;8.27;;
1747;SDS011;871;47.034;15.394;2023-05-10T11:22:54;46.60;;;8.60;;
1747;SDS011;871;47.034;15.394;2023-05-10T11:25:22;48.20;;;8.33;;
1747;SDS011;871;47.034;15.394;2023-05-10T11:27:53;43.87;;;7.60;;
1747;SDS011;871;47.034;15.394;2023-05-10T11:30:19;43.93;;;7.30;;
1747;SDS011;871;47.034;15.394;2023-05-10T11:32:45;48.20;;;8.30;;
1747;SDS011;871;47.034;15.394;2023-05-10T11:35:12;47.67;;;8.03;;
1747;SDS011;871;47.034;15.394;2023-05-10T11:37:41;46.83;;;7.53;;
1747;SDS011;871;47.034;15.394;2023-05-10T11:40:09;48.00;;;7.80;;
1747;SDS011;871;47.034;15.394;2023-05-10T11:42:38;44.53;;;7.40;;
1747;SDS011;871;47.034;15.394;2023-05-10T11:45:04;46.87;;;8.47;;
1747;SDS011;871;47.034;15.394;2023-05-10T11:47:30;44.23;;;7.20;;
1747;SDS011;871;47.034;15.394;2023-05-10T11:49:57;45.10;;;7.40;;
1747;SDS011;871;47.034;15.394;2023-05-10T11:52:23;45.50;;;7.27;;
1747;SDS011;871;47.034;15.394;2023-05-10T11:54:53;44.17;;;7.50;;
1747;SDS011;871;47.034;15.394;2023-05-10T11:57:20;47.90;;;8.00;;
1747;SDS011;871;47.034;15.394;2023-05-10T11:59:46;47.13;;;7.63;;
1747;SDS011;871;47.034;15.394;2023-05-10T12:02:15;45.47;;;7.30;;
1747;SDS011;871;47.034;15.394;2023-05-10T12:04:41;42.90;;;6.73;;
1747;SDS011;871;47.034;15.394;2023-05-10T12:07:07;42.30;;;6.20;;
1747;SDS011;871;47.034;15.394;2023-05-10T12:09:33;47.00;;;6.70;;
1747;SDS011;871;47.034;15.394;2023-05-10T12:11:59;44.60;;;6.60;;
1747;SDS011;871;47.034;15.394;2023-05-10T12:14:26;43.87;;;7.40;;
1747;SDS011;871;47.034;15.394;2023-05-10T12:16:54;47.00;;;6.90;;
1747;SDS011;871;47.034;15.394;2023-05-10T12:19:22;43.83;;;6.47;;
1747;SDS011;871;47.034;15.394;2023-05-10T12:21:48;42.87;;;6.57;;
1747;SDS011;871;47.034;15.394;2023-05-10T12:24:14;43.00;;;6.60;;
1747;SDS011;871;47.034;15.394;2023-05-10T12:26:47;44.13;;;6.50;;
1747;SDS011;871;47.034;15.394;2023-05-10T12:29:14;42.70;;;6.30;;
1747;SDS011;871;47.034;15.394;2023-05-10T12:31:53;45.23;;;8.10;;
1747;SDS011;871;47.034;15.394;2023-05-10T12:36:53;43.40;;;7.17;;
1747;SDS011;871;47.034;15.394;2023-05-10T12:39:19;42.97;;;6.70;;
1747;SDS011;871;47.034;15.394;2023-05-10T12:41:45;45.17;;;6.37;;
1747;SDS011;871;47.034;15.394;2023-05-10T12:44:11;44.60;;;8.30;;
1747;SDS011;871;47.034;15.394;2023-05-10T12:46:37;45.00;;;7.87;;
1747;SDS011;871;47.034;15.394;2023-05-10T12:49:03;45.20;;;8.03;;
1747;SDS011;871;47.034;15.394;2023-05-10T12:51:29;43.30;;;7.43;;
1747;SDS011;871;47.034;15.394;2023-05-10T12:53:56;44.23;;;8.27;;
1747;SDS011;871;47.034;15.394;2023-05-10T12:56:22;44.97;;;8.10;;
1747;SDS011;871;47.034;15.394;2023-05-10T12:58:48;43.07;;;7.50;;
1747;SDS011;871;47.034;15.394;2023-05-10T13:01:14;45.10;;;7.93;;
1747;SDS011;871;47.034;15.394;2023-05-10T13:03:40;44.77;;;7.77;;
1747;SDS011;871;47.034;15.394;2023-05-10T13:06:07;43.37;;;7.93;;
1747;SDS011;871;47.034;15.394;2023-05-10T13:08:34;42.57;;;7.30;;
1747;SDS011;871;47.034;15.394;2023-05-10T13:11:01;43.40;;;6.97;;
1747;SDS011;871;47.034;15.394;2023-05-10T13:13:27;42.47;;;6.33;;
1747;SDS011;871;47.034;15.394;2023-05-10T13:15:54;47.50;;;7.20;;
1747;SDS011;871;47.034;15.394;2023-05-10T13:18:20;43.00;;;6.70;;
1747;SDS011;871;47.034;15.394;2023-05-10T13:20:46;45.53;;;6.77;;
1747;SDS011;871;47.034;15.394;2023-05-10T13:23:12;42.67;;;6.70;;
1747;SDS011;871;47.034;15.394;2023-05-10T13:25:38;43.83;;;7.33;;
1747;SDS011;871;47.034;15.394;2023-05-10T13:28:04;42.90;;;7.00;;
1747;SDS011;871;47.034;15.394;2023-05-10T13:30:30;42.80;;;7.13;;
1747;SDS011;871;47.034;15.394;2023-05-10T13:32:56;48.10;;;7.40;;
1747;SDS011;871;47.034;15.394;2023-05-10T13:35:22;46.47;;;7.97;;
1747;SDS011;871;47.034;15.394;2023-05-10T13:37:48;45.60;;;6.80;;
1747;SDS011;871;47.034;15.394;2023-05-10T13:40:16;45.00;;;7.20;;
1747;SDS011;871;47.034;15.394;2023-05-10T13:42:43;46.47;;;8.53;;
1747;SDS011;871;47.034;15.394;2023-05-10T13:45:10;48.90;;;7.40;;
1747;SDS011;871;47.034;15.394;2023-05-10T13:47:37;44.60;;;6.97;;
1747;SDS011;871;47.034;15.394;2023-05-10T13:50:03;43.40;;;7.27;;
1747;SDS011;871;47.034;15.394;2023-05-10T13:52:29;43.00;;;7.30;;
1747;SDS011;871;47.034;15.394;2023-05-10T13:54:55;42.70;;;6.77;;
1747;SDS011;871;47.034;15.394;2023-05-10T13:57:22;41.30;;;6.23;;
1747;SDS011;871;47.034;15.394;2023-05-10T13:59:49;43.90;;;7.60;;
1747;SDS011;871;47.034;15.394;2023-05-10T14:02:15;43.80;;;7.70;;
1747;SDS011;871;47.034;15.394;2023-05-10T14:04:41;44.37;;;8.13;;
1747;SDS011;871;47.034;15.394;2023-05-10T14:07:07;43.77;;;8.30;;
1747;SDS011;871;47.034;15.394;2023-05-10T14:09:33;44.20;;;7.23;;
1747;SDS011;871;47.034;15.394;2023-05-10T14:11:59;45.33;;;7.57;;
1747;SDS011;871;47.034;15.394;2023-05-10T14:14:25;42.37;;;6.73;;
1747;SDS011;871;47.034;15.394;2023-05-10T14:16:53;44.57;;;7.37;;
1747;SDS011;871;47.034;15.394;2023-05-10T14:19:19;45.23;;;7.60;;
1747;SDS011;871;47.034;15.394;2023-05-10T14:21:45;44.30;;;7.07;;
1747;SDS011;871;47.034;15.394;2023-05-10T14:24:11;44.60;;;6.97;;
1747;SDS011;871;47.034;15.394;2023-05-10T14:26:37;43.60;;;7.43;;
1747;SDS011;871;47.034;15.394;2023-05-10T14:29:03;45.60;;;7.77;;
1747;SDS011;871;47.034;15.394;2023-05-10T14:31:29;43.90;;;8.03;;
1747;SDS011;871;47.034;15.394;2023-05-10T14:33:55;48.77;;;8.00;;
1747;SDS011;871;47.034;15.394;2023-05-10T14:36:22;44.90;;;7.70;;
1747;SDS011;871;47.034;15.394;2023-05-10T14:38:48;47.40;;;8.13;;
1747;SDS011;871;47.034;15.394;2023-05-10T14:41:15;42.23;;;7.60;;
1747;SDS011;871;47.034;15.394;2023-05-10T14:43:42;45.27;;;8.23;;
1747;SDS011;871;47.034;15.394;2023-05-10T14:46:08;42.07;;;7.10;;
1747;SDS011;871;47.034;15.394;2023-05-10T14:48:34;43.30;;;8.00;;
1747;SDS011;871;47.034;15.394;2023-05-10T14:51:01;43.47;;;7.30;;
1747;SDS011;871;47.034;15.394;2023-05-10T14:53:27;43.13;;;7.40;;
1747;SDS011;871;47.034;15.394;2023-05-10T14:55:53;44.07;;;7.33;;
1747;SDS011;871;47.034;15.394;2023-05-10T14:58:18;43.90;;;7.33;;
1747;SDS011;871;47.034;15.394;2023-05-10T15:00:45;47.30;;;7.57;;
1747;SDS011;871;47.034;15.394;2023-05-10T15:03:11;44.60;;;7.50;;
1747;SDS011;871;47.034;15.394;2023-05-10T15:05:37;44.47;;;8.70;;
1747;SDS011;871;47.034;15.394;2023-05-10T15:08:05;45.90;;;8.70;;
1747;SDS011;871;47.034;15.394;2023-05-10T15:10:31;44.67;;;8.50;;
1747;SDS011;871;47.034;15.394;2023-05-10T15:12:57;44.47;;;8.50;;
1747;SDS011;871;47.034;15.394;2023-05-10T15:15:23;46.33;;;7.03;;
1747;SDS011;871;47.034;15.394;2023-05-10T15:17:50;45.40;;;7.77;;
1747;SDS011;871;47.034;15.394;2023-05-10T15:20:16;44.20;;;7.20;;
1747;SDS011;871;47.034;15.394;2023-05-10T15:22:42;42.80;;;6.60;;
1747;SDS011;871;47.034;15.394;2023-05-10T15:25:08;43.00;;;7.30;;
1747;SDS011;871;47.034;15.394;2023-05-10T15:27:34;44.33;;;7.63;;
1747;SDS011;871;47.034;15.394;2023-05-10T15:30:01;44.40;;;8.30;;
1747;SDS011;871;47.034;15.394;2023-05-10T15:32:27;42.40;;;7.00;;
1747;SDS011;871;47.034;15.394;2023-05-10T15:34:56;46.93;;;8.00;;
1747;SDS011;871;47.034;15.394;2023-05-10T15:37:23;50.20;;;7.43;;
1747;SDS011;871;47.034;15.394;2023-05-10T15:39:49;45.77;;;7.83;;
1747;SDS011;871;47.034;15.394;2023-05-10T15:42:15;43.87;;;6.80;;
1747;SDS011;871;47.034;15.394;2023-05-10T15:44:41;42.50;;;6.70;;
1747;SDS011;871;47.034;15.394;2023-05-10T15:47:09;45.43;;;6.70;;
1747;SDS011;871;47.034;15.394;2023-05-10T15:49:35;41.90;;;6.10;;
1747;SDS011;871;47.034;15.394;2023-05-10T15:52:01;42.00;;;6.37;;
1747;SDS011;871;47.034;15.394;2023-05-10T15:54:27;44.33;;;6.43;;
1747;SDS011;871;47.034;15.394;2023-05-10T15:56:53;42.23;;;6.03;;
1747;SDS011;871;47.034;15.394;2023-05-10T15:59:19;44.00;;;6.23;;
1747;SDS011;871;47.034;15.394;2023-05-10T16:01:45;41.87;;;6.00;;
1747;SDS011;871;47.034;15.394;2023-05-10T16:04:11;42.40;;;5.50;;
1747;SDS011;871;47.034;15.394;2023-05-10T16:06:38;41.87;;;5.90;;
1747;SDS011;871;47.034;15.394;2023-05-10T16:09:04;42.30;;;7.03;;
1747;SDS011;871;47.034;15.394;2023-05-10T16:11:30;41.67;;;6.37;;
1747;SDS011;871;47.034;15.394;2023-05-10T16:13:56;43.13;;;6.60;;
1747;SDS011;871;47.034;15.394;2023-05-10T16:16:23;42.90;;;6.10;;
1747;SDS011;871;47.034;15.394;2023-05-10T16:18:49;45.23;;;6.30;;
1747;SDS011;871;47.034;15.394;2023-05-10T16:21:16;42.20;;;6.40;;
1747;SDS011;871;47.034;15.394;2023-05-10T16:23:42;41.80;;;6.33;;
1747;SDS011;871;47.034;15.394;2023-05-10T16:26:10;42.27;;;6.60;;
1747;SDS011;871;47.034;15.394;2023-05-10T16:28:36;42.90;;;6.40;;
1747;SDS011;871;47.034;15.394;2023-05-10T16:31:04;43.07;;;7.00;;
1747;SDS011;871;47.034;15.394;2023-05-10T16:33:30;42.70;;;6.03;;
1747;SDS011;871;47.034;15.394;2023-05-10T16:35:56;42.50;;;7.13;;
1747;SDS011;871;47.034;15.394;2023-05-10T16:38:22;44.60;;;7.20;;
1747;SDS011;871;47.034;15.394;2023-05-10T16:40:48;44.70;;;7.33;;
1747;SDS011;871;47.034;15.394;2023-05-10T16:43:15;42.33;;;6.33;;
1747;SDS011;871;47.034;15.394;2023-05-10T16:45:41;42.27;;;7.10;;
1747;SDS011;871;47.034;15.394;2023-05-10T16:48:07;43.43;;;6.40;;
1747;SDS011;871;47.034;15.394;2023-05-10T16:50:33;43.60;;;6.90;;
1747;SDS011;871;47.034;15.394;2023-05-10T16:52:59;43.33;;;7.20;;
1747;SDS011;871;47.034;15.394;2023-05-10T16:55:25;43.37;;;7.00;;
1747;SDS011;871;47.034;15.394;2023-05-10T16:57:53;43.00;;;6.97;;
1747;SDS011;871;47.034;15.394;2023-05-10T17:00:23;42.67;;;6.60;;
1747;SDS011;871;47.034;15.394;2023-05-10T17:02:49;42.57;;;7.40;;
1747;SDS011;871;47.034;15.394;2023-05-10T17:05:15;42.20;;;6.33;;
1747;SDS011;871;47.034;15.394;2023-05-10T17:07:41;42.87;;;6.90;;
1747;SDS011;871;47.034;15.394;2023-05-10T17:10:08;42.17;;;5.80;;
1747;SDS011;871;47.034;15.394;2023-05-10T17:12:34;41.07;;;6.13;;
1747;SDS011;871;47.034;15.394;2023-05-10T17:15:00;42.63;;;6.60;;
1747;SDS011;871;47.034;15.394;2023-05-10T17:17:26;41.60;;;6.10;;
1747;SDS011;871;47.034;15.394;2023-05-10T17:19:53;42.30;;;6.37;;
1747;SDS011;871;47.034;15.394;2023-05-10T17:22:19;42.17;;;5.93;;
1747;SDS011;871;47.034;15.394;2023-05-10T17:24:45;40.97;;;5.70;;
1747;SDS011;871;47.034;15.394;2023-05-10T17:27:12;40.70;;;5.80;;
1747;SDS011;871;47.034;15.394;2023-05-10T17:29:38;41.73;;;5.30;;
1747;SDS011;871;47.034;15.394;2023-05-10T17:32:04;48.03;;;6.70;;
1747;SDS011;871;47.034;15.394;2023-05-10T17:34:33;41.57;;;5.80;;
1747;SDS011;871;47.034;15.394;2023-05-10T17:36:59;41.70;;;5.40;;
1747;SDS011;871;47.034;15.394;2023-05-10T17:39:25;42.50;;;5.80;;
1747;SDS011;871;47.034;15.394;2023-05-10T17:41:52;41.30;;;5.70;;
1747;SDS011;871;47.034;15.394;2023-05-10T17:44:18;42.17;;;6.47;;
1747;SDS011;871;47.034;15.394;2023-05-10T17:46:44;42.07;;;6.03;;
1747;SDS011;871;47.034;15.394;2023-05-10T17:49:10;42.10;;;5.17;;
1747;SDS011;871;47.034;15.394;2023-05-10T17:51:37;43.93;;;5.97;;
1747;SDS011;871;47.034;15.394;2023-05-10T17:54:03;41.50;;;5.37;;
1747;SDS011;871;47.034;15.394;2023-05-10T17:56:30;42.40;;;6.20;;
1747;SDS011;871;47.034;15.394;2023-05-10T17:58:56;49.80;;;6.30;;
1747;SDS011;871;47.034;15.394;2023-05-10T18:01:22;41.87;;;5.57;;
1747;SDS011;871;47.034;15.394;2023-05-10T18:03:48;41.60;;;5.47;;
1747;SDS011;871;47.034;15.394;2023-05-10T18:06:15;41.47;;;5.80;;
1747;SDS011;871;47.034;15.394;2023-05-10T18:08:41;41.30;;;5.37;;
1747;SDS011;871;47.034;15.394;2023-05-10T18:11:07;44.67;;;6.07;;
1747;SDS011;871;47.034;15.394;2023-05-10T18:13:33;40.90;;;6.00;;
1747;SDS011;871;47.034;15.394;2023-05-10T18:16:01;41.90;;;6.50;;
1747;SDS011;871;47.034;15.394;2023-05-10T18:18:29;42.83;;;6.93;;
1747;SDS011;871;47.034;15.394;2023-05-10T18:20:56;43.07;;;6.47;;
1747;SDS011;871;47.034;15.394;2023-05-10T18:23:25;43.53;;;7.80;;
1747;SDS011;871;47.034;15.394;2023-05-10T18:25:52;44.10;;;8.10;;
1747;SDS011;871;47.034;15.394;2023-05-10T18:28:18;45.80;;;9.77;;
1747;SDS011;871;47.034;15.394;2023-05-10T18:30:45;46.60;;;8.77;;
1747;SDS011;871;47.034;15.394;2023-05-10T18:33:11;43.53;;;7.90;;
1747;SDS011;871;47.034;15.394;2023-05-10T18:35:37;41.83;;;6.97;;
1747;SDS011;871;47.034;15.394;2023-05-10T18:38:04;44.73;;;6.97;;
1747;SDS011;871;47.034;15.394;2023-05-10T18:40:30;41.77;;;6.63;;
1747;SDS011;871;47.034;15.394;2023-05-10T18:42:56;45.70;;;7.67;;
1747;SDS011;871;47.034;15.394;2023-05-10T18:45:22;44.10;;;8.20;;
1747;SDS011;871;47.034;15.394;2023-05-10T18:47:48;43.70;;;7.20;;
1747;SDS011;871;47.034;15.394;2023-05-10T18:50:16;46.77;;;8.13;;
1747;SDS011;871;47.034;15.394;2023-05-10T18:52:43;45.77;;;8.60;;
1747;SDS011;871;47.034;15.394;2023-05-10T18:55:10;46.73;;;8.17;;
1747;SDS011;871;47.034;15.394;2023-05-10T18:57:36;45.43;;;7.60;;
1747;SDS011;871;47.034;15.394;2023-05-10T19:00:06;43.73;;;7.57;;
1747;SDS011;871;47.034;15.394;2023-05-10T19:02:33;44.23;;;7.97;;
1747;SDS011;871;47.034;15.394;2023-05-10T19:05:00;44.10;;;8.27;;
1747;SDS011;871;47.034;15.394;2023-05-10T19:07:26;43.93;;;7.63;;
1747;SDS011;871;47.034;15.394;2023-05-10T19:09:52;42.77;;;7.20;;
1747;SDS011;871;47.034;15.394;2023-05-10T19:12:18;44.83;;;8.13;;
1747;SDS011;871;47.034;15.394;2023-05-10T19:14:45;46.70;;;9.00;;
1747;SDS011;871;47.034;15.394;2023-05-10T19:17:12;42.90;;;7.67;;
1747;SDS011;871;47.034;15.394;2023-05-10T19:19:40;43.20;;;7.10;;
1747;SDS011;871;47.034;15.394;2023-05-10T19:22:06;43.57;;;7.23;;
1747;SDS011;871;47.034;15.394;2023-05-10T19:24:32;42.50;;;6.57;;
1747;SDS011;871;47.034;15.394;2023-05-10T19:26:58;44.30;;;6.50;;